createdAt,value
2022-08-20T00:01:23.075Z,11.33
2022-08-20T00:03:53.433Z,11.37
2022-08-20T00:06:24.304Z,14.83
2022-08-20T00:08:54.824Z,12.90
2022-08-20T00:11:26.308Z,11.10
2022-08-20T00:14:00.046Z,11.17
2022-08-20T00:16:33.135Z,13.33
2022-08-20T00:19:02.637Z,10.30
2022-08-20T00:21:31.621Z,11.40
2022-08-20T00:24:01.841Z,10.23
2022-08-20T00:26:30.669Z,14.20
2022-08-20T00:28:59.377Z,11.83
2022-08-20T00:31:28.553Z,11.47
2022-08-20T00:33:57.435Z,11.07
2022-08-20T00:36:32.295Z,10.63
2022-08-20T00:39:03.574Z,11.80
2022-08-20T00:41:32.388Z,12.03
2022-08-20T00:44:13.075Z,10.60
2022-08-20T00:46:42.981Z,11.90
2022-08-20T00:49:17.730Z,14.43
2022-08-20T00:51:50.526Z,11.40
2022-08-20T00:54:25.152Z,13.90
2022-08-20T00:57:01.708Z,11.30
2022-08-20T00:59:32.681Z,11.20
2022-08-20T01:02:02.978Z,12.60
2022-08-20T01:04:34.850Z,12.07
2022-08-20T01:07:05.599Z,11.67
2022-08-20T01:09:58.508Z,11.20
2022-08-20T01:12:27.541Z,12.40
2022-08-20T01:14:57.099Z,10.40
2022-08-20T01:17:30.433Z,10.93
2022-08-20T01:20:04.564Z,11.30
2022-08-20T01:23:18.074Z,11.30
2022-08-20T01:25:51.810Z,11.27
2022-08-20T01:28:25.671Z,10.67
2022-08-20T01:30:54.511Z,11.17
2022-08-20T01:33:24.409Z,11.83
2022-08-20T01:35:54.563Z,13.23
2022-08-20T01:38:23.718Z,13.77
2022-08-20T01:41:41.049Z,11.97
2022-08-20T01:44:16.038Z,11.10
2022-08-20T01:46:47.773Z,11.50
2022-08-20T01:49:23.321Z,12.07
2022-08-20T01:51:53.598Z,10.97
2022-08-20T01:54:23.209Z,11.50
2022-08-20T01:56:56.826Z,12.00
2022-08-20T01:59:26.990Z,11.07
2022-08-20T02:01:56.990Z,12.73
2022-08-20T02:04:25.826Z,12.47
2022-08-20T02:06:57.755Z,12.90
2022-08-20T02:09:29.591Z,11.90
2022-08-20T02:11:58.953Z,11.90
2022-08-20T02:14:29.266Z,12.70
2022-08-20T02:16:58.741Z,12.67
2022-08-20T02:19:32.408Z,13.27
2022-08-20T02:22:20.385Z,12.20
2022-08-20T02:24:51.546Z,12.73
2022-08-20T02:27:20.417Z,12.90
2022-08-20T02:29:50.649Z,11.83
2022-08-20T02:32:32.396Z,13.33
2022-08-20T02:35:04.024Z,13.83
2022-08-20T02:37:33.142Z,12.93
2022-08-20T02:40:01.856Z,13.77
2022-08-20T02:42:30.618Z,13.10
2022-08-20T02:45:00.730Z,13.50
2022-08-20T02:47:29.526Z,15.17
2022-08-20T02:49:59.906Z,14.80
2022-08-20T02:52:28.954Z,14.93
2022-08-20T02:54:57.626Z,15.17
2022-08-20T02:57:26.530Z,17.23
2022-08-20T02:59:55.139Z,15.53
2022-08-20T03:02:25.220Z,17.60
2022-08-20T03:04:53.818Z,18.00
2022-08-20T03:07:22.896Z,19.00
2022-08-20T03:09:51.647Z,19.33
2022-08-20T03:12:20.296Z,22.70
2022-08-20T03:14:48.963Z,25.07
2022-08-20T03:17:17.864Z,27.60
2022-08-20T03:19:47.918Z,30.93
2022-08-20T03:22:16.662Z,34.63
2022-08-20T03:24:45.670Z,34.57
2022-08-20T03:27:14.716Z,36.63
2022-08-20T03:29:43.382Z,34.60
2022-08-20T03:32:12.099Z,33.67
2022-08-20T03:34:40.759Z,37.20
2022-08-20T03:37:11.894Z,33.67
2022-08-20T03:39:40.789Z,33.97
2022-08-20T03:42:09.779Z,35.67
2022-08-20T03:44:38.474Z,35.03
2022-08-20T03:47:09.693Z,37.10
2022-08-20T03:49:38.345Z,35.00
2022-08-20T03:52:07.386Z,35.63
2022-08-20T03:54:37.461Z,33.57
2022-08-20T03:57:12.756Z,35.87
2022-08-20T03:59:41.819Z,33.43
2022-08-20T04:02:11.342Z,35.90
2022-08-20T04:04:40.504Z,35.73
2022-08-20T04:07:13.341Z,37.00
2022-08-20T04:09:43.902Z,35.87
2022-08-20T04:12:13.825Z,36.03
2022-08-20T04:14:42.508Z,38.30
2022-08-20T04:17:14.319Z,42.03
2022-08-20T04:19:44.560Z,37.67
2022-08-20T04:22:15.031Z,38.73
2022-08-20T04:24:45.322Z,38.07
2022-08-20T04:27:14.970Z,40.20
2022-08-20T04:29:44.927Z,38.30
2022-08-20T04:32:14.188Z,39.30
2022-08-20T04:34:47.276Z,40.90
2022-08-20T04:37:17.654Z,41.00
2022-08-20T04:40:07.997Z,38.47
2022-08-20T04:42:38.376Z,40.93
2022-08-20T04:45:10.040Z,38.10
2022-08-20T04:47:38.734Z,39.60
2022-08-20T04:50:10.857Z,36.77
2022-08-20T04:52:39.585Z,38.50
2022-08-20T04:55:11.378Z,34.10
2022-08-20T04:57:40.114Z,33.77
2022-08-20T05:00:13.192Z,33.60
2022-08-20T05:02:42.471Z,31.97
2022-08-20T05:05:11.798Z,37.47
2022-08-20T05:07:42.579Z,37.90
2022-08-20T05:10:15.451Z,35.00
2022-08-20T05:12:55.094Z,35.17
2022-08-20T05:15:26.550Z,35.10
2022-08-20T05:17:58.696Z,37.87
2022-08-20T05:20:28.896Z,38.57
2022-08-20T05:22:57.503Z,34.17
2022-08-20T05:25:29.578Z,38.60
2022-08-20T05:28:00.901Z,34.53
2022-08-20T05:30:33.579Z,36.10
2022-08-20T05:33:03.670Z,36.67
2022-08-20T05:35:34.599Z,38.10
2022-08-20T05:38:03.427Z,39.20
2022-08-20T05:40:34.151Z,43.17
2022-08-20T05:43:04.503Z,42.57
2022-08-20T05:45:33.926Z,44.30
2022-08-20T05:48:06.526Z,39.67
2022-08-20T05:50:36.211Z,43.30
2022-08-20T05:53:05.343Z,44.50
2022-08-20T05:55:37.614Z,43.37
2022-08-20T05:58:08.688Z,44.60
2022-08-20T06:00:37.654Z,43.57
2022-08-20T06:03:23.525Z,43.73
2022-08-20T06:05:52.349Z,43.53
2022-08-20T06:08:21.100Z,40.03
2022-08-20T06:10:51.237Z,43.97
2022-08-20T06:13:20.111Z,87.57
2022-08-20T06:15:48.852Z,42.23
2022-08-20T06:18:27.738Z,40.43
2022-08-20T06:20:57.922Z,40.70
2022-08-20T06:23:26.800Z,37.83
2022-08-20T06:25:56.913Z,40.67
2022-08-20T06:28:25.826Z,38.43
2022-08-20T06:30:54.758Z,38.30
2022-08-20T06:33:23.411Z,40.70
2022-08-20T06:35:52.050Z,42.63
2022-08-20T06:38:20.759Z,39.70
2022-08-20T06:40:49.665Z,43.20
2022-08-20T06:43:19.773Z,50.67
2022-08-20T06:45:48.469Z,41.57
2022-08-20T06:48:17.492Z,41.87
2022-08-20T06:50:48.480Z,39.43
2022-08-20T06:53:20.892Z,39.27
2022-08-20T06:55:53.218Z,39.50
2022-08-20T06:58:30.468Z,43.47
2022-08-20T07:01:09.269Z,40.87
2022-08-20T07:03:39.443Z,41.93
2022-08-20T07:06:11.510Z,42.20
2022-08-20T07:08:40.654Z,42.07
2022-08-20T07:11:09.481Z,42.77
2022-08-20T07:13:41.628Z,42.27
2022-08-20T07:16:10.275Z,43.10
2022-08-20T07:18:38.998Z,39.93
2022-08-20T07:21:07.986Z,39.43
2022-08-20T07:23:36.757Z,40.43
2022-08-20T07:26:05.797Z,40.33
2022-08-20T07:28:34.617Z,40.37
2022-08-20T07:31:22.138Z,34.77
2022-08-20T07:33:52.088Z,38.60
2022-08-20T07:36:21.999Z,36.73
2022-08-20T07:38:52.789Z,37.07
2022-08-20T07:41:22.024Z,36.07
2022-08-20T07:43:51.205Z,36.67
2022-08-20T07:46:22.878Z,34.57
2022-08-20T07:48:52.015Z,33.13
2022-08-20T07:51:23.350Z,34.17
2022-08-20T07:53:53.099Z,32.07
2022-08-20T07:56:25.026Z,30.63
2022-08-20T07:58:56.804Z,33.03
2022-08-20T08:01:29.979Z,32.47
2022-08-20T08:03:59.337Z,33.20
2022-08-20T08:06:31.303Z,34.37
2022-08-20T08:09:04.674Z,30.67
2022-08-20T08:11:37.802Z,31.67
2022-08-20T08:14:10.235Z,32.80
2022-08-20T08:16:42.475Z,33.73
2022-08-20T08:19:16.198Z,33.00
2022-08-20T08:21:45.940Z,33.20
2022-08-20T08:24:19.976Z,34.57
2022-08-20T08:26:51.212Z,31.33
2022-08-20T08:29:20.404Z,34.23
2022-08-20T08:31:50.955Z,31.03
2022-08-20T08:34:20.400Z,30.70
2022-08-20T08:36:51.379Z,28.70
2022-08-20T08:39:21.004Z,29.50
2022-08-20T08:41:51.879Z,27.37
2022-08-20T08:44:27.483Z,26.63
2022-08-20T08:47:00.723Z,28.87
2022-08-20T08:49:38.006Z,29.50
2022-08-20T08:52:15.082Z,25.27
2022-08-20T08:54:49.288Z,25.27
2022-08-20T08:57:18.256Z,25.60
2022-08-20T09:00:04.452Z,26.80
2022-08-20T09:02:39.169Z,30.65
2022-08-20T09:05:19.250Z,25.92
2022-08-20T09:07:51.480Z,24.48
2022-08-20T09:10:23.695Z,24.73
2022-08-20T09:12:52.831Z,23.60
2022-08-20T09:15:23.577Z,24.38
2022-08-20T09:17:54.190Z,25.15
2022-08-20T09:20:26.919Z,24.17
2022-08-20T09:22:56.340Z,22.77
2022-08-20T09:25:25.894Z,23.45
2022-08-20T09:27:55.210Z,22.27
2022-08-20T09:30:24.418Z,22.00
2022-08-20T09:32:55.572Z,25.23
2022-08-20T09:35:24.726Z,23.80
2022-08-20T09:37:53.777Z,21.58
2022-08-20T09:40:22.653Z,21.05
2022-08-20T09:42:52.033Z,21.80
2022-08-20T09:45:21.771Z,21.80
2022-08-20T09:47:56.212Z,24.30
2022-08-20T09:50:28.045Z,23.52
2022-08-20T09:52:58.586Z,22.27
2022-08-20T09:55:33.835Z,22.08
2022-08-20T09:58:04.016Z,23.45
2022-08-20T10:00:32.743Z,22.63
2022-08-20T10:03:03.600Z,28.50
2022-08-20T10:05:33.887Z,24.98
2022-08-20T10:08:07.030Z,24.77
2022-08-20T10:10:37.642Z,26.40
2022-08-20T10:13:07.590Z,26.37
2022-08-20T10:15:38.146Z,25.07
2022-08-20T10:18:12.256Z,25.50
2022-08-20T10:20:45.906Z,23.87
2022-08-20T10:23:14.904Z,25.67
2022-08-20T10:25:45.484Z,27.57
2022-08-20T10:28:16.530Z,25.20
2022-08-20T10:30:47.294Z,26.00
2022-08-20T10:33:16.659Z,25.93
2022-08-20T10:35:47.162Z,26.83
2022-08-20T10:38:16.441Z,27.03
2022-08-20T10:40:50.943Z,25.43
2022-08-20T10:43:22.196Z,28.00
2022-08-20T10:45:52.963Z,26.03
2022-08-20T10:48:25.106Z,27.07
2022-08-20T10:50:56.107Z,26.00
2022-08-20T10:53:25.136Z,27.00
2022-08-20T10:56:01.233Z,27.57
2022-08-20T10:58:39.751Z,25.87
2022-08-20T11:01:28.736Z,27.57
2022-08-20T11:04:11.337Z,29.27
2022-08-20T11:06:42.925Z,29.73
2022-08-20T11:09:16.116Z,31.50
2022-08-20T11:11:45.154Z,27.07
2022-08-20T11:14:13.952Z,26.40
2022-08-20T11:16:42.675Z,28.53
2022-08-20T11:19:11.837Z,28.27
2022-08-20T11:21:42.006Z,26.77
2022-08-20T11:24:10.781Z,27.67
2022-08-20T11:26:39.623Z,28.33
2022-08-20T11:29:08.817Z,28.13
2022-08-20T11:31:37.748Z,27.57
2022-08-20T11:34:12.068Z,27.40
2022-08-20T11:36:43.214Z,27.40
2022-08-20T11:39:12.204Z,27.00
2022-08-20T11:41:41.420Z,28.60
2022-08-20T11:44:21.762Z,27.60
2022-08-20T11:46:50.713Z,27.43
2022-08-20T11:49:21.035Z,27.70
2022-08-20T11:51:52.504Z,26.77
2022-08-20T11:54:23.528Z,26.80
2022-08-20T11:56:55.160Z,25.77
2022-08-20T11:59:24.553Z,26.37
2022-08-20T12:02:03.150Z,24.37
2022-08-20T12:04:35.468Z,24.70
2022-08-20T12:07:14.834Z,23.98
2022-08-20T12:09:53.475Z,24.58
2022-08-20T12:12:24.600Z,23.65
2022-08-20T12:15:00.164Z,22.20
2022-08-20T12:17:32.968Z,25.42
2022-08-20T12:20:05.708Z,23.08
2022-08-20T12:22:36.120Z,22.30
2022-08-20T12:25:07.152Z,22.92
2022-08-20T12:27:41.327Z,22.90
2022-08-20T12:30:13.572Z,21.65
2022-08-20T12:32:43.012Z,23.08
2022-08-20T12:35:13.659Z,22.02
2022-08-20T12:37:47.291Z,19.65
2022-08-20T12:40:18.257Z,21.15
2022-08-20T12:43:02.290Z,20.10
2022-08-20T12:45:32.575Z,19.35
2022-08-20T12:48:09.910Z,21.05
2022-08-20T12:50:46.755Z,20.17
2022-08-20T12:53:27.255Z,19.05
2022-08-20T12:55:56.412Z,19.48
2022-08-20T12:58:25.582Z,18.67
2022-08-20T13:00:56.972Z,19.42
2022-08-20T13:03:25.815Z,19.55
2022-08-20T13:05:57.053Z,19.33
2022-08-20T13:08:27.493Z,17.98
2022-08-20T13:10:56.932Z,18.67
2022-08-20T13:13:25.931Z,18.60
2022-08-20T13:15:54.835Z,19.17
2022-08-20T13:18:23.691Z,19.15
2022-08-20T13:20:52.755Z,18.52
2022-08-20T13:23:21.652Z,19.80
2022-08-20T13:25:52.030Z,19.90
2022-08-20T13:28:20.753Z,20.88
2022-08-20T13:30:49.849Z,20.60
2022-08-20T13:33:18.601Z,17.83
2022-08-20T13:35:47.322Z,19.48
2022-08-20T13:38:16.129Z,18.15
2022-08-20T13:40:45.162Z,18.20
2022-08-20T13:43:19.373Z,18.88
2022-08-20T13:45:48.056Z,16.98
2022-08-20T13:48:16.757Z,18.17
2022-08-20T13:50:47.184Z,16.52
2022-08-20T13:53:16.698Z,18.05
2022-08-20T13:55:46.312Z,18.00
2022-08-20T13:58:15.069Z,17.02
2022-08-20T14:00:46.606Z,17.55
2022-08-20T14:03:19.948Z,16.80
2022-08-20T14:05:53.875Z,15.68
2022-08-20T14:08:24.637Z,18.13
2022-08-20T14:10:53.379Z,16.90
2022-08-20T14:13:27.185Z,16.73
2022-08-20T14:15:57.839Z,17.95
2022-08-20T14:18:26.977Z,16.70
2022-08-20T14:20:55.666Z,18.15
2022-08-20T14:23:24.525Z,17.88
2022-08-20T14:25:53.417Z,16.67
2022-08-20T14:28:23.935Z,17.40
2022-08-20T14:30:53.838Z,18.47
2022-08-20T14:33:24.865Z,17.10
2022-08-20T14:35:54.883Z,16.83
2022-08-20T14:38:23.693Z,17.27
2022-08-20T14:40:52.599Z,16.53
2022-08-20T14:43:21.308Z,16.13
2022-08-20T14:45:49.932Z,15.97
2022-08-20T14:48:18.536Z,17.20
2022-08-20T14:50:48.635Z,17.23
2022-08-20T14:53:17.207Z,17.87
2022-08-20T14:55:45.916Z,17.63
2022-08-20T14:58:17.231Z,17.50
2022-08-20T15:00:46.994Z,16.33
2022-08-20T15:03:15.696Z,21.83
2022-08-20T15:05:44.581Z,24.33
2022-08-20T15:08:14.843Z,24.57
2022-08-20T15:10:45.064Z,25.63
2022-08-20T15:13:13.729Z,26.63
2022-08-20T15:15:42.466Z,27.17
2022-08-20T15:18:11.147Z,27.40
2022-08-20T15:20:40.099Z,27.33
2022-08-20T15:23:08.691Z,24.63
2022-08-20T15:25:39.122Z,22.90
2022-08-20T15:28:10.252Z,30.40
2022-08-20T15:30:39.801Z,22.27
2022-08-20T15:33:09.044Z,70.30
2022-08-20T15:35:38.076Z,29.37
2022-08-20T15:38:06.683Z,29.67
2022-08-20T15:40:35.870Z,34.23
2022-08-20T15:43:07.923Z,27.13
2022-08-20T15:45:38.653Z,21.17
2022-08-20T15:48:13.442Z,17.67
2022-08-20T15:51:32.922Z,15.20
2022-08-20T15:54:04.386Z,12.80
2022-08-20T15:57:02.385Z,15.53
2022-08-20T15:59:49.241Z,14.03
2022-08-20T16:02:35.890Z,15.97
2022-08-20T16:05:24.069Z,14.77
2022-08-20T16:08:03.362Z,13.67
2022-08-20T16:10:41.944Z,11.93
2022-08-20T16:13:20.948Z,11.93
2022-08-20T16:15:56.510Z,12.10
2022-08-20T16:18:32.649Z,10.00
2022-08-20T16:21:04.049Z,10.00
2022-08-20T16:23:35.697Z,9.13
2022-08-20T16:26:17.042Z,8.23
2022-08-20T16:28:55.572Z,8.97
2022-08-20T16:31:30.359Z,8.97
2022-08-20T16:34:23.427Z,8.73
2022-08-20T16:37:04.438Z,8.67
2022-08-20T16:39:40.989Z,9.83
2022-08-20T16:42:11.883Z,7.30
2022-08-20T16:44:43.594Z,7.90
2022-08-20T16:47:18.490Z,8.30
2022-08-20T16:49:52.013Z,7.70
2022-08-20T16:52:20.992Z,12.00
2022-08-20T16:54:49.820Z,21.33
2022-08-20T16:57:20.101Z,9.93
2022-08-20T17:00:00.663Z,9.67
2022-08-20T17:02:30.803Z,7.37
2022-08-20T17:05:04.703Z,7.53
2022-08-20T17:07:46.131Z,9.30
2022-08-20T17:10:20.678Z,6.40
2022-08-20T17:12:54.870Z,4.90
2022-08-20T17:15:27.635Z,5.90
2022-08-20T17:18:17.889Z,6.27
2022-08-20T17:20:47.335Z,6.80
2022-08-20T17:23:18.641Z,6.77
2022-08-20T17:25:58.363Z,6.07
2022-08-20T17:28:35.454Z,6.27
2022-08-20T17:31:04.401Z,8.27
2022-08-20T17:33:38.186Z,7.10
2022-08-20T17:36:11.740Z,6.80
2022-08-20T17:38:48.206Z,7.40
2022-08-20T17:41:23.327Z,9.10
2022-08-20T17:43:59.898Z,7.00
2022-08-20T17:46:30.708Z,8.00
2022-08-20T17:49:03.563Z,7.40
2022-08-20T17:51:37.952Z,7.47
2022-08-20T17:54:13.799Z,7.90
2022-08-20T17:56:44.902Z,8.00
2022-08-20T17:59:24.031Z,6.07
2022-08-20T18:02:06.680Z,7.27
2022-08-20T18:04:36.753Z,7.40
2022-08-20T18:07:14.760Z,6.83
2022-08-20T18:09:51.741Z,9.77
2022-08-20T18:12:34.398Z,9.33
2022-08-20T18:15:10.799Z,7.60
2022-08-20T18:17:59.919Z,7.67
2022-08-20T18:20:56.417Z,6.80
2022-08-20T18:23:29.330Z,5.87
2022-08-20T18:26:05.185Z,4.87
2022-08-20T18:28:39.688Z,5.53
2022-08-20T18:31:10.699Z,5.97
2022-08-20T18:33:42.488Z,5.93
2022-08-20T18:36:16.259Z,6.07
2022-08-20T18:38:57.548Z,5.83
2022-08-20T18:41:31.352Z,6.83
2022-08-20T18:44:06.852Z,6.40
2022-08-20T18:46:36.416Z,9.20
2022-08-20T18:49:09.250Z,5.90
2022-08-20T18:51:44.118Z,6.00
2022-08-20T18:54:25.431Z,7.10
2022-08-20T18:57:06.003Z,7.93
2022-08-20T18:59:42.074Z,5.87
2022-08-20T19:02:23.648Z,6.33
2022-08-20T19:04:59.729Z,6.83
2022-08-20T19:07:48.274Z,8.10
2022-08-20T19:10:42.425Z,21.90
2022-08-20T19:13:43.857Z,24.30
2022-08-20T19:16:17.977Z,19.03
2022-08-20T19:18:50.795Z,14.57
2022-08-20T19:21:24.193Z,43.60
2022-08-20T19:23:58.820Z,18.60
2022-08-20T19:26:31.726Z,17.90
2022-08-20T19:29:03.281Z,17.53
2022-08-20T19:31:34.554Z,11.20
2022-08-20T19:34:20.043Z,9.40
2022-08-20T19:37:28.211Z,11.93
2022-08-20T19:39:57.708Z,8.10
2022-08-20T19:42:28.591Z,9.10
2022-08-20T19:45:01.547Z,9.90
2022-08-20T19:47:33.901Z,8.10
2022-08-20T19:50:17.533Z,9.43
2022-08-20T19:52:57.302Z,7.77
2022-08-20T19:55:31.822Z,8.10
2022-08-20T19:58:03.019Z,9.00
2022-08-20T20:00:40.905Z,9.40
2022-08-20T20:03:17.383Z,9.33
2022-08-20T20:06:21.901Z,9.70
2022-08-20T20:08:57.921Z,9.57
2022-08-20T20:11:35.359Z,10.40
2022-08-20T20:14:16.697Z,10.70
2022-08-20T20:16:51.457Z,12.27
2022-08-20T20:19:30.937Z,13.27
2022-08-20T20:22:19.927Z,13.20
2022-08-20T20:24:58.457Z,15.03
2022-08-20T20:27:32.538Z,13.40
2022-08-20T20:30:03.876Z,15.90
2022-08-20T20:32:35.708Z,15.23
2022-08-20T20:35:09.606Z,17.63
2022-08-20T20:37:49.615Z,18.03
2022-08-20T20:40:25.963Z,16.37
2022-08-20T20:43:07.161Z,17.57
2022-08-20T20:45:40.950Z,18.00
2022-08-20T20:48:25.152Z,17.97
2022-08-20T20:50:56.570Z,19.27
2022-08-20T20:53:47.457Z,20.40
2022-08-20T20:56:40.083Z,19.03
2022-08-20T20:59:19.454Z,18.27
2022-08-20T21:01:50.553Z,20.47
2022-08-20T21:04:22.774Z,17.70
2022-08-20T21:06:59.450Z,16.43
2022-08-20T21:09:47.490Z,17.03
2022-08-20T21:12:17.358Z,15.37
2022-08-20T21:14:48.204Z,14.63
2022-08-20T21:17:23.129Z,14.23
2022-08-20T21:19:55.799Z,14.70
2022-08-20T21:22:25.900Z,13.70
2022-08-20T21:24:55.984Z,14.07
2022-08-20T21:27:30.089Z,13.73
2022-08-20T21:30:00.868Z,28.40
2022-08-20T21:32:29.567Z,17.93
2022-08-20T21:35:00.875Z,13.20
2022-08-20T21:37:29.810Z,11.80
2022-08-20T21:39:59.191Z,14.07
2022-08-20T21:42:29.841Z,12.13
2022-08-20T21:45:02.323Z,11.70
2022-08-20T21:47:31.366Z,11.60
2022-08-20T21:50:02.084Z,10.07
2022-08-20T21:52:36.197Z,10.90
2022-08-20T21:55:11.643Z,11.70
2022-08-20T21:57:40.951Z,11.37
2022-08-20T22:00:17.975Z,10.50
2022-08-20T22:02:46.740Z,11.10
2022-08-20T22:05:16.165Z,10.90
2022-08-20T22:07:45.344Z,12.13
2022-08-20T22:10:14.437Z,10.70
2022-08-20T22:12:43.565Z,11.40
2022-08-20T22:15:14.027Z,11.40
2022-08-20T22:17:42.907Z,10.53
2022-08-20T22:20:12.427Z,12.50
2022-08-20T22:22:41.376Z,11.10
2022-08-20T22:25:15.064Z,11.20
2022-08-20T22:27:44.130Z,10.70
2022-08-20T22:30:15.305Z,10.03
2022-08-20T22:32:52.297Z,10.70
2022-08-20T22:35:21.660Z,10.87
2022-08-20T22:37:50.531Z,10.60
2022-08-20T22:40:19.694Z,10.90
2022-08-20T22:42:48.679Z,10.87
2022-08-20T22:45:19.185Z,11.50
2022-08-20T22:47:48.246Z,10.70
2022-08-20T22:50:25.485Z,11.23
2022-08-20T22:52:54.797Z,10.40
2022-08-20T22:55:23.631Z,11.27
2022-08-20T22:57:53.464Z,11.00
2022-08-20T23:00:24.086Z,10.50
2022-08-20T23:02:56.553Z,10.80
2022-08-20T23:05:28.387Z,11.43
2022-08-20T23:07:58.854Z,10.17
2022-08-20T23:10:29.969Z,11.73
2022-08-20T23:12:59.184Z,10.50
2022-08-20T23:15:30.816Z,11.83
2022-08-20T23:18:04.346Z,11.90
2022-08-20T23:20:33.464Z,11.30
2022-08-20T23:23:02.445Z,11.90
2022-08-20T23:25:31.454Z,12.20
2022-08-20T23:28:04.194Z,11.67
2022-08-20T23:30:34.629Z,10.53
2022-08-20T23:33:05.454Z,13.20
2022-08-20T23:35:34.212Z,12.10
2022-08-20T23:38:03.016Z,12.27
2022-08-20T23:40:32.280Z,11.93
2022-08-20T23:43:01.068Z,14.40
2022-08-20T23:45:31.074Z,13.00
2022-08-20T23:48:01.534Z,12.13
2022-08-20T23:50:32.107Z,13.20
2022-08-20T23:53:00.818Z,13.50
2022-08-20T23:55:29.528Z,12.90
2022-08-20T23:57:58.220Z,12.60
